Time;durP1;ratioP1;P1;durP2;ratioP2;P2;SDS_P1;SDS_P2;PMS_P1;PMS_P2;Temp;Humidity;BMP_temperature;BMP_pressure;BME280_temperature;BME280_humidity;BME280_pressure;Samples;Min_cycle;Max_cycle;Signal;HPM_P1;HPM_P2
2023/12/15 00:00:48;;;;;;;11.57;9.57;;;;;;;4.43;92.22;99111.81;5064586;28;20203;-73
2023/12/15 00:03:14;;;;;;;11.57;8.65;;;;;;;4.39;92.57;99105.03;5064029;28;20557;-74
2023/12/15 00:05:42;;;;;;;10.95;9.05;;;;;;;4.34;92.85;99101.91;5065661;28;20207;-72
2023/12/15 00:08:09;;;;;;;10.82;8.65;;;;;;;4.46;92.72;99111.53;5064097;28;20196;-73
2023/12/15 00:10:35;;;;;;;10.95;9.15;;;;;;;4.39;92.61;99115.75;5080437;28;20226;-73
2023/12/15 00:13:03;;;;;;;11.05;9.23;;;;;;;4.28;93.13;99115.84;5048374;28;20202;-73
2023/12/15 00:15:30;;;;;;;11.52;8.55;;;;;;;4.33;93.17;99121.63;5065903;28;20554;-74
2023/12/15 00:17:56;;;;;;;12.85;9.85;;;;;;;4.15;92.94;99121.44;5081827;28;20193;-73
2023/12/15 00:20:23;;;;;;;11.23;8.85;;;;;;;4.29;93.16;99128.25;5049410;28;20207;-73
2023/12/15 00:22:51;;;;;;;12.43;9.40;;;;;;;4.25;93.90;99129.50;5063219;28;20212;-73
2023/12/15 00:25:18;;;;;;;12.23;9.75;;;;;;;4.34;93.18;99131.38;5083473;28;20811;-73
2023/12/15 00:27:44;;;;;;;12.63;9.48;;;;;;;4.25;93.40;99137.53;5049299;28;20200;-73
2023/12/15 00:30:13;;;;;;;14.65;9.63;;;;;;;4.35;93.42;99133.91;5063982;28;20218;-73
2023/12/15 00:32:40;;;;;;;12.30;9.10;;;;;;;4.15;93.68;99131.31;5097109;28;20207;-73
2023/12/15 00:35:07;;;;;;;11.52;8.82;;;;;;;4.18;93.82;99145.28;5066308;28;20289;-73
2023/12/15 00:37:34;;;;;;;12.40;9.20;;;;;;;4.17;93.00;99145.44;5064025;28;20208;-73
2023/12/15 00:40:02;;;;;;;12.07;9.25;;;;;;;4.03;94.00;99151.97;5071676;28;20585;-73
2023/12/15 00:42:29;;;;;;;11.52;8.93;;;;;;;4.15;93.86;99152.75;5049639;28;20254;-73
2023/12/15 00:44:56;;;;;;;12.38;9.15;;;;;;;4.29;92.95;99157.72;5065359;28;20196;-74
2023/12/15 00:47:23;;;;;;;13.30;10.32;;;;;;;4.22;92.90;99140.53;5064691;28;20216;-74
2023/12/15 00:49:49;;;;;;;12.75;9.27;;;;;;;4.29;92.03;99155.91;5063469;28;20236;-73
2023/12/15 00:52:16;;;;;;;12.23;9.23;;;;;;;4.15;92.40;99160.78;5045609;28;20592;-73
2023/12/15 00:54:43;;;;;;;12.43;9.70;;;;;;;4.22;92.68;99165.47;5075705;28;20291;-73
2023/12/15 00:57:11;;;;;;;12.15;9.18;;;;;;;4.09;92.37;99162.16;5065883;28;20215;-73
2023/12/15 00:59:37;;;;;;;11.73;8.70;;;;;;;4.15;92.12;99171.50;5065725;28;20894;-73
2023/12/15 01:02:05;;;;;;;14.40;8.93;;;;;;;4.16;92.24;99175.88;5048464;28;20203;-73
2023/12/15 01:04:33;;;;;;;12.63;9.15;;;;;;;4.18;91.80;99168.56;5062995;28;20228;-73
2023/12/15 01:06:59;;;;;;;14.82;8.95;;;;;;;4.21;91.25;99181.69;5062878;28;20204;-73
2023/12/15 01:09:26;;;;;;;13.50;9.65;;;;;;;4.25;90.92;99183.09;5061966;28;20209;-73
2023/12/15 01:11:53;;;;;;;13.80;9.23;;;;;;;4.10;91.46;99176.41;5064576;28;20714;-73
2023/12/15 01:14:21;;;;;;;14.65;10.95;;;;;;;4.19;91.51;99184.50;5059256;28;20284;-73
2023/12/15 01:16:48;;;;;;;12.07;9.15;;;;;;;4.20;90.96;99191.56;5064205;28;20577;-73
2023/12/15 01:19:17;;;;;;;14.68;9.80;;;;;;;4.14;91.51;99204.63;5095578;27;20204;-73
2023/12/15 01:21:44;;;;;;;13.65;9.85;;;;;;;4.25;90.99;99207.19;5079948;28;20193;-73
2023/12/15 01:24:11;;;;;;;16.48;10.55;;;;;;;4.20;90.75;99214.81;5062826;28;20283;-73
2023/12/15 01:26:38;;;;;;;14.73;10.32;;;;;;;4.20;90.75;99222.84;5053459;28;20208;-73
2023/12/15 01:29:05;;;;;;;12.63;8.82;;;;;;;4.17;90.59;99215.09;5063553;28;20200;-73
2023/12/15 01:31:33;;;;;;;14.20;10.60;;;;;;;4.16;91.20;99232.97;5063018;28;20295;-74
2023/12/15 01:33:59;;;;;;;16.08;11.20;;;;;;;4.26;90.77;99238.38;5061293;28;20198;-73
2023/12/15 01:36:28;;;;;;;13.82;10.15;;;;;;;4.26;90.83;99235.69;5063577;28;20246;-73
2023/12/15 01:38:54;;;;;;;13.27;9.63;;;;;;;4.31;90.48;99234.31;5062688;28;20654;-73
2023/12/15 01:41:21;;;;;;;13.90;10.13;;;;;;;4.17;90.72;99239.19;5044708;28;20212;-73
2023/12/15 01:43:50;;;;;;;12.90;9.32;;;;;;;4.20;91.14;99245.13;5049443;28;20680;-73
2023/12/15 01:46:19;;;;;;;14.32;10.38;;;;;;;4.10;91.47;99252.25;5063640;28;20290;-73
2023/12/15 01:48:47;;;;;;;13.63;9.75;;;;;;;4.12;91.58;99257.47;5046496;28;20210;-72
2023/12/15 01:51:15;;;;;;;14.90;11.48;;;;;;;4.16;92.07;99259.78;5082187;28;20223;-73
2023/12/15 01:53:42;;;;;;;15.50;11.02;;;;;;;4.13;91.73;99261.88;5047080;28;20287;-74
2023/12/15 01:56:10;;;;;;;15.15;10.63;;;;;;;4.03;92.20;99259.97;5045588;28;20200;-73
2023/12/15 01:58:36;;;;;;;16.73;12.10;;;;;;;3.90;92.58;99253.94;5093446;28;20554;-73
2023/12/15 02:01:04;;;;;;;15.45;9.77;;;;;;;3.96;92.23;99253.41;5062380;28;20672;-72
2023/12/15 02:03:31;;;;;;;11.23;8.65;;;;;;;3.94;91.34;99263.41;5095815;28;20287;-73
2023/12/15 02:05:59;;;;;;;12.90;9.70;;;;;;;4.08;90.85;99250.69;5063046;28;20197;-73
2023/12/15 02:08:26;;;;;;;14.43;9.45;;;;;;;4.08;90.45;99259.56;5081979;28;20686;-73
2023/12/15 02:10:53;;;;;;;11.35;9.10;;;;;;;4.09;90.43;99258.59;5081236;28;20727;-74
2023/12/15 02:13:20;;;;;;;9.63;7.65;;;;;;;4.22;88.78;99261.09;5047238;28;20283;-73
2023/12/15 02:15:46;;;;;;;10.32;8.48;;;;;;;4.19;89.14;99264.03;5080907;28;20283;-73
2023/12/15 02:18:13;;;;;;;11.45;8.65;;;;;;;4.09;89.70;99260.41;5079971;28;20215;-73
2023/12/15 02:20:40;;;;;;;12.93;9.50;;;;;;;4.07;89.13;99268.59;5061480;28;20234;-73
2023/12/15 02:23:11;;;;;;;11.93;9.20;;;;;;;4.00;89.39;99270.94;5060440;28;20211;-74
2023/12/15 02:25:39;;;;;;;10.15;8.32;;;;;;;4.09;89.48;99268.47;5064327;28;20295;-73
2023/12/15 02:28:05;;;;;;;11.65;8.75;;;;;;;3.94;90.12;99279.47;5082362;28;20192;-73
2023/12/15 02:30:32;;;;;;;12.98;9.75;;;;;;;3.98;89.87;99278.25;5082336;28;20299;-73
2023/12/15 02:32:58;;;;;;;12.50;9.13;;;;;;;3.90;90.34;99275.34;5063319;28;20188;-73
2023/12/15 02:35:25;;;;;;;14.43;10.27;;;;;;;3.88;90.80;99282.69;5063911;28;20208;-73
2023/12/15 02:37:52;;;;;;;13.85;10.32;;;;;;;3.82;91.23;99275.19;5080915;28;20231;-72
2023/12/15 02:40:20;;;;;;;12.50;10.18;;;;;;;3.82;91.25;99282.38;5078780;28;20262;-73
2023/12/15 02:42:47;;;;;;;13.15;10.18;;;;;;;3.76;92.20;99289.06;5061780;28;20249;-73
2023/12/15 02:45:13;;;;;;;12.55;9.43;;;;;;;3.84;92.56;99289.28;5045875;28;20653;-73
2023/12/15 02:47:40;;;;;;;11.93;9.73;;;;;;;3.87;92.54;99294.38;5079591;28;20210;-73
2023/12/15 02:50:07;;;;;;;14.15;9.88;;;;;;;3.77;93.16;99293.44;5069897;28;20287;-73
2023/12/15 02:52:34;;;;;;;13.35;10.90;;;;;;;4.04;92.44;99296.47;5064602;28;20215;-73
2023/12/15 02:55:06;;;;;;;12.70;9.10;;;;;;;4.01;92.13;99304.78;5078422;28;20277;-73
2023/12/15 02:57:35;;;;;;;11.07;9.88;;;;;;;4.05;91.75;99300.00;5062020;28;20203;-73
2023/12/15 03:00:01;;;;;;;11.90;9.65;;;;;;;4.18;91.74;99305.19;5081015;28;20204;-73
2023/12/15 03:02:28;;;;;;;11.80;9.45;;;;;;;4.09;91.69;99306.81;5063425;28;20676;-73
2023/12/15 03:04:55;;;;;;;11.38;9.75;;;;;;;3.95;92.14;99310.63;5079586;28;20588;-73
2023/12/15 03:07:22;;;;;;;11.63;9.88;;;;;;;4.07;91.79;99313.28;5066941;28;20227;-73
2023/12/15 03:09:48;;;;;;;11.73;9.65;;;;;;;4.07;91.95;99308.75;5048468;28;20549;-73
2023/12/15 03:12:15;;;;;;;12.77;10.10;;;;;;;4.31;91.29;99319.22;5066836;28;20221;-73
2023/12/15 03:14:43;;;;;;;10.63;9.00;;;;;;;4.16;91.22;99325.91;5067638;28;20560;-73
2023/12/15 03:17:10;;;;;;;10.05;9.05;;;;;;;3.98;91.93;99314.88;5067108;28;20310;-73
2023/12/15 03:19:39;;;;;;;12.57;9.95;;;;;;;4.28;90.78;99328.38;5066455;28;20669;-73
2023/12/15 03:22:05;;;;;;;11.63;10.18;;;;;;;4.17;90.98;99332.97;5048303;28;20201;-73
2023/12/15 03:24:32;;;;;;;10.77;8.60;;;;;;;4.26;90.33;99334.84;5064373;28;20208;-73
2023/12/15 03:26:58;;;;;;;10.73;9.55;;;;;;;4.17;91.06;99346.34;5083223;28;20208;-72
2023/12/15 03:29:25;;;;;;;10.18;9.00;;;;;;;4.31;90.20;99340.66;5065702;28;20196;-72
2023/12/15 03:31:53;;;;;;;10.85;9.45;;;;;;;4.26;90.09;99345.53;5049810;28;20242;-72
2023/12/15 03:34:19;;;;;;;9.57;8.57;;;;;;;4.19;91.01;99339.88;5068102;28;20207;-72
2023/12/15 03:36:46;;;;;;;11.52;8.75;;;;;;;4.18;90.75;99348.06;5081447;28;21839;-73
2023/12/15 03:39:12;;;;;;;10.00;8.68;;;;;;;4.23;90.45;99341.28;5065905;28;20200;-73
2023/12/15 03:41:39;;;;;;;12.98;9.25;;;;;;;4.08;91.24;99347.13;5067833;28;20669;-73
2023/12/15 03:44:05;;;;;;;10.40;9.18;;;;;;;3.91;92.00;99352.03;5099104;28;20708;-73
2023/12/15 03:46:32;;;;;;;13.13;9.32;;;;;;;3.93;92.27;99355.44;5065657;28;20207;-74
2023/12/15 03:49:00;;;;;;;10.77;8.90;;;;;;;4.28;90.99;99362.34;5064503;28;20202;-73
2023/12/15 03:51:26;;;;;;;9.95;8.95;;;;;;;4.39;90.23;99362.31;5074578;28;20222;-73
2023/12/15 03:53:53;;;;;;;11.43;9.43;;;;;;;4.32;89.62;99366.47;5062822;28;20200;-73
2023/12/15 03:56:24;;;;;;;11.85;10.25;;;;;;;4.10;89.86;99358.56;5064952;28;20672;-73
2023/12/15 03:58:52;;;;;;;10.60;9.50;;;;;;;4.28;89.74;99370.38;5074212;28;20281;-74
2023/12/15 04:01:19;;;;;;;13.02;9.23;;;;;;;4.16;90.52;99368.75;5060435;28;20200;-73
2023/12/15 04:03:45;;;;;;;9.93;8.50;;;;;;;4.24;90.32;99368.94;5081676;28;20618;-73
2023/12/15 04:06:13;;;;;;;10.05;9.05;;;;;;;4.25;89.72;99359.94;5063057;28;20196;-73
2023/12/15 04:08:40;;;;;;;10.52;8.98;;;;;;;4.07;90.37;99366.84;5049566;28;20201;-74
2023/12/15 04:11:07;;;;;;;9.90;8.60;;;;;;;3.98;90.92;99377.34;5063825;28;20219;-73
2023/12/15 04:13:33;;;;;;;10.25;9.05;;;;;;;4.04;91.06;99375.97;5098716;28;20195;-73
2023/12/15 04:16:00;;;;;;;9.30;8.20;;;;;;;4.11;90.86;99374.50;5097605;27;20207;-73
2023/12/15 04:18:27;;;;;;;11.40;9.23;;;;;;;4.10;90.86;99371.94;5066090;28;20226;-73
2023/12/15 04:20:53;;;;;;;10.85;8.73;;;;;;;4.08;90.74;99389.97;5064245;28;20196;-72
2023/12/15 04:23:21;;;;;;;10.73;8.55;;;;;;;4.09;90.32;99392.53;5080611;28;20204;-73
2023/12/15 04:25:48;;;;;;;9.90;8.70;;;;;;;4.07;90.17;99404.34;5081620;28;20218;-72
2023/12/15 04:28:14;;;;;;;9.82;8.43;;;;;;;4.02;90.82;99400.22;5063452;28;20210;-73
2023/12/15 04:30:42;;;;;;;10.40;9.18;;;;;;;4.09;90.15;99407.75;5064040;28;20716;-73
2023/12/15 04:33:08;;;;;;;9.70;8.50;;;;;;;4.14;90.12;99405.53;5062926;28;20651;-73
2023/12/15 04:35:35;;;;;;;11.02;9.05;;;;;;;3.92;90.58;99401.94;5063137;28;20211;-73
2023/12/15 04:38:01;;;;;;;10.75;8.63;;;;;;;3.87;91.62;99412.22;5064879;28;20214;-73
2023/12/15 04:40:29;;;;;;;10.48;9.30;;;;;;;4.00;90.91;99418.25;5063888;28;20204;-73
2023/12/15 04:42:56;;;;;;;11.60;9.65;;;;;;;4.08;90.42;99414.94;5062421;28;20201;-73
2023/12/15 04:45:24;;;;;;;11.50;9.63;;;;;;;4.02;90.73;99418.97;5064178;28;20200;-72
2023/12/15 04:47:51;;;;;;;11.60;10.32;;;;;;;4.00;90.66;99420.91;5062666;28;20216;-73
2023/12/15 04:50:18;;;;;;;11.85;10.43;;;;;;;4.08;90.08;99414.94;5065001;28;20208;-73
2023/12/15 04:52:45;;;;;;;12.00;9.88;;;;;;;3.98;90.63;99424.69;5081900;28;20282;-73
2023/12/15 04:55:11;;;;;;;10.13;8.73;;;;;;;4.04;90.87;99427.72;5065731;28;20291;-73
2023/12/15 04:57:39;;;;;;;12.10;9.60;;;;;;;4.14;89.61;99427.81;5065591;28;20242;-73
2023/12/15 05:00:07;;;;;;;10.75;9.65;;;;;;;4.24;89.27;99430.56;5062985;28;20201;-73
2023/12/15 05:02:34;;;;;;;12.20;9.77;;;;;;;4.22;88.89;99436.09;5063075;28;20200;-72
2023/12/15 05:05:00;;;;;;;10.80;9.57;;;;;;;4.28;88.75;99437.38;5062606;28;20291;-72
2023/12/15 05:07:27;;;;;;;10.38;8.82;;;;;;;4.08;89.78;99432.84;5071511;28;20282;-72
2023/12/15 05:09:54;;;;;;;13.40;9.35;;;;;;;4.15;89.35;99428.69;5048475;28;20210;-72
2023/12/15 05:12:21;;;;;;;10.45;9.35;;;;;;;4.17;89.27;99432.09;5061999;28;20216;-73
2023/12/15 05:14:49;;;;;;;12.20;9.43;;;;;;;4.15;89.25;99444.75;5095439;27;20197;-73
2023/12/15 05:17:17;;;;;;;11.38;9.50;;;;;;;4.28;89.11;99450.78;5045322;28;20208;-72
2023/12/15 05:19:44;;;;;;;10.57;9.55;;;;;;;4.34;88.75;99447.59;5063246;28;20722;-73
2023/12/15 05:22:10;;;;;;;11.10;9.05;;;;;;;4.41;88.49;99454.16;5062335;28;20569;-73
2023/12/15 05:24:38;;;;;;;10.13;9.05;;;;;;;4.19;89.15;99462.28;5092317;28;20296;-74
2023/12/15 05:27:05;;;;;;;13.95;9.75;;;;;;;4.29;89.25;99463.19;5067059;28;20223;-72
2023/12/15 05:29:32;;;;;;;11.27;10.07;;;;;;;4.52;88.51;99464.81;5047692;28;20207;-73
2023/12/15 05:32:00;;;;;;;6.75;6.13;;;;;;;6.48;87.61;99460.03;5049637;28;20230;-75
2023/12/15 05:34:28;;;;;;;9.75;7.03;;;;;;;7.79;77.86;99471.78;5082708;28;20218;-76
2023/12/15 05:36:55;;;;;;;8.23;7.43;;;;;;;6.26;78.49;99479.94;5063203;28;20275;-73
2023/12/15 05:39:21;;;;;;;9.00;8.15;;;;;;;5.36;82.41;99484.44;5062293;28;20242;-73
2023/12/15 05:41:48;;;;;;;9.80;8.55;;;;;;;5.01;83.70;99495.53;5060156;28;20195;-73
2023/12/15 05:44:14;;;;;;;10.00;9.00;;;;;;;4.85;84.89;99508.53;5063144;28;20196;-71
2023/12/15 05:46:42;;;;;;;9.63;8.38;;;;;;;4.63;85.90;99513.00;5070688;28;20211;-75
2023/12/15 05:49:10;;;;;;;9.10;8.20;;;;;;;4.52;86.04;99518.44;5092618;28;20189;-73
2023/12/15 05:51:37;;;;;;;9.80;8.80;;;;;;;4.39;86.48;99523.09;5061718;28;20219;-73
2023/12/15 05:54:04;;;;;;;11.57;9.38;;;;;;;4.35;87.12;99524.31;5095604;28;20295;-72
2023/12/15 05:56:31;;;;;;;9.63;7.80;;;;;;;4.44;87.15;99530.78;5057222;28;20203;-75
2023/12/15 05:58:57;;;;;;;9.75;8.85;;;;;;;4.55;86.63;99523.50;5062075;28;20204;-75
2023/12/15 06:01:25;;;;;;;9.07;8.18;;;;;;;4.51;86.76;99531.97;5062180;28;20196;-75
2023/12/15 06:03:52;;;;;;;9.80;8.80;;;;;;;4.32;87.36;99543.34;5080110;28;20287;-71
2023/12/15 06:06:20;;;;;;;10.43;9.18;;;;;;;4.45;87.08;99537.84;5060261;28;20225;-75
2023/12/15 06:08:47;;;;;;;9.70;8.70;;;;;;;4.45;86.43;99544.03;5060588;28;20200;-75
2023/12/15 06:11:14;;;;;;;10.10;9.10;;;;;;;4.43;87.10;99546.00;5061326;28;20203;-75
2023/12/15 06:13:41;;;;;;;10.13;9.00;;;;;;;4.60;86.35;99553.47;5080599;28;20197;-75
2023/12/15 06:16:09;;;;;;;9.80;7.97;;;;;;;4.50;86.31;99546.34;5060794;28;20210;-75
2023/12/15 06:18:35;;;;;;;9.93;8.93;;;;;;;4.46;87.12;99556.47;5063348;28;20620;-75
2023/12/15 06:21:02;;;;;;;10.35;8.80;;;;;;;4.58;86.84;99566.16;5040783;28;20204;-75
2023/12/15 06:23:30;;;;;;;15.15;12.63;;;;;;;4.43;87.88;99567.44;5062743;28;20836;-75
2023/12/15 06:25:57;;;;;;;12.18;10.98;;;;;;;4.48;88.19;99567.91;5050672;28;20204;-74
2023/12/15 06:28:23;;;;;;;16.65;12.07;;;;;;;4.50;88.36;99567.78;5090718;28;20322;-75
2023/12/15 06:30:50;;;;;;;13.15;10.85;;;;;;;4.55;88.28;99558.38;5060721;28;20562;-75
2023/12/15 06:33:16;;;;;;;12.30;11.07;;;;;;;4.44;89.84;99547.69;5083350;28;20222;-75
2023/12/15 06:35:44;;;;;;;12.02;10.75;;;;;;;4.57;88.10;99556.41;5056500;28;20205;-73
2023/12/15 06:38:11;;;;;;;14.52;12.80;;;;;;;4.58;87.98;99566.16;5086944;28;20260;-75
2023/12/15 06:40:40;;;;;;;12.18;10.85;;;;;;;4.48;88.69;99564.38;5086630;28;20196;-74
2023/12/15 06:43:09;;;;;;;13.93;10.77;;;;;;;4.32;89.18;99571.00;5068546;28;20204;-75
2023/12/15 06:45:36;;;;;;;13.70;11.05;;;;;;;4.33;89.08;99582.56;5083033;28;20204;-75
2023/12/15 06:48:02;;;;;;;11.80;10.57;;;;;;;4.29;89.13;99581.09;5081377;28;20268;-75
2023/12/15 06:50:30;;;;;;;12.23;10.55;;;;;;;4.23;89.19;99587.81;5063553;28;20289;-75
2023/12/15 06:52:57;;;;;;;17.55;11.80;;;;;;;4.26;89.15;99606.31;5065036;28;20219;-75
2023/12/15 06:55:23;;;;;;;13.90;10.90;;;;;;;4.04;90.38;99601.84;5064344;28;20254;-75
2023/12/15 06:57:51;;;;;;;12.23;11.02;;;;;;;4.14;90.14;99609.16;5048587;28;20206;-75
2023/12/15 07:00:19;;;;;;;13.15;11.30;;;;;;;4.26;89.48;99608.13;5080762;28;20211;-75
2023/12/15 07:02:45;;;;;;;14.32;11.23;;;;;;;4.46;88.51;99607.41;5048330;28;20203;-75
2023/12/15 07:05:12;;;;;;;13.25;11.45;;;;;;;4.55;88.23;99614.66;5073355;28;20749;-75
2023/12/15 07:07:39;;;;;;;15.98;12.77;;;;;;;4.38;89.45;99623.25;5064384;28;20671;-75
2023/12/15 07:10:07;;;;;;;15.13;13.52;;;;;;;4.26;90.26;99630.44;5065011;28;20219;-76
2023/12/15 07:12:33;;;;;;;15.48;12.13;;;;;;;4.22;90.49;99634.34;5062353;28;20224;-75
2023/12/15 07:15:01;;;;;;;15.10;13.40;;;;;;;4.20;90.75;99627.41;5099660;27;20920;-75
2023/12/15 07:17:28;;;;;;;16.27;13.73;;;;;;;4.18;90.97;99632.91;5064522;28;20301;-76
2023/12/15 07:19:55;;;;;;;16.60;13.25;;;;;;;4.11;91.40;99639.72;5063972;28;20561;-76
2023/12/15 07:22:23;;;;;;;15.00;13.40;;;;;;;4.24;91.18;99636.88;5046843;28;20241;-75
2023/12/15 07:24:50;;;;;;;17.02;14.20;;;;;;;4.19;91.46;99639.97;5065725;28;20291;-75
2023/12/15 07:27:17;;;;;;;17.88;14.05;;;;;;;4.33;91.10;99646.88;5045078;28;20211;-75
2023/12/15 07:29:44;;;;;;;14.80;13.30;;;;;;;4.41;90.76;99644.44;5062252;28;20204;-76
2023/12/15 07:32:12;;;;;;;14.63;13.07;;;;;;;4.49;89.98;99654.56;5079439;28;20307;-75
2023/12/15 07:34:38;;;;;;;14.15;12.75;;;;;;;4.58;89.20;99651.09;5035711;28;20784;-75
2023/12/15 07:37:05;;;;;;;16.00;13.60;;;;;;;4.53;89.46;99664.06;5062102;28;20558;-75
2023/12/15 07:39:34;;;;;;;15.30;12.90;;;;;;;4.59;89.32;99663.53;5070641;28;20207;-75
2023/12/15 07:42:00;;;;;;;16.67;13.65;;;;;;;4.54;89.77;99655.88;5064351;28;20201;-75
2023/12/15 07:44:27;;;;;;;16.10;14.10;;;;;;;4.62;89.70;99655.25;5079032;28;20205;-75
2023/12/15 07:46:55;;;;;;;16.50;14.68;;;;;;;4.59;90.13;99664.38;5063649;28;20595;-75
2023/12/15 07:49:24;;;;;;;15.85;14.25;;;;;;;4.58;90.28;99670.72;5062619;28;20210;-75
2023/12/15 07:51:50;;;;;;;16.50;14.25;;;;;;;4.67;89.86;99661.94;5058853;28;20280;-75
2023/12/15 07:54:18;;;;;;;16.45;14.52;;;;;;;4.64;90.04;99666.69;5061893;28;20201;-75
2023/12/15 07:56:44;;;;;;;16.70;14.93;;;;;;;4.60;90.16;99666.09;5081405;28;20269;-75
2023/12/15 07:59:11;;;;;;;17.85;14.77;;;;;;;4.47;91.20;99670.75;5061689;28;20283;-74
2023/12/15 08:01:38;;;;;;;17.52;15.05;;;;;;;4.61;91.46;99672.31;5078227;28;20211;-74
2023/12/15 08:04:05;;;;;;;18.10;14.23;;;;;;;4.55;91.37;99673.66;5033845;28;20204;-75
2023/12/15 08:06:37;;;;;;;18.75;15.82;;;;;;;4.58;91.72;99678.75;5062365;28;20227;-74
2023/12/15 08:09:04;;;;;;;15.98;14.27;;;;;;;4.63;91.43;99686.44;5081736;28;20232;-74
2023/12/15 08:11:30;;;;;;;15.63;13.40;;;;;;;4.65;91.21;99689.84;5063850;28;20207;-75
2023/12/15 08:13:57;;;;;;;17.55;14.07;;;;;;;4.81;90.77;99697.53;5078567;28;20307;-75
2023/12/15 08:16:24;;;;;;;15.27;13.05;;;;;;;4.71;90.26;99695.59;5080430;28;20196;-75
2023/12/15 08:18:50;;;;;;;15.23;13.48;;;;;;;4.97;88.89;99689.91;5061021;28;20279;-75
2023/12/15 08:21:17;;;;;;;13.27;11.38;;;;;;;5.09;87.54;99698.78;5060845;28;20211;-74
2023/12/15 08:23:45;;;;;;;12.82;11.43;;;;;;;5.04;88.00;99701.84;5062505;28;20473;-75
2023/12/15 08:26:19;;;;;;;12.80;11.50;;;;;;;5.07;87.56;99705.13;5061783;28;20577;-75
2023/12/15 08:28:46;;;;;;;12.90;11.30;;;;;;;5.15;87.67;99707.19;5028159;28;20203;-75
2023/12/15 08:31:12;;;;;;;13.85;11.95;;;;;;;5.28;86.64;99712.38;5046023;28;20209;-75
2023/12/15 08:33:39;;;;;;;13.27;11.30;;;;;;;5.27;86.11;99714.22;5061455;28;20245;-75
2023/12/15 08:36:08;;;;;;;10.98;9.88;;;;;;;5.28;85.93;99715.91;5045542;28;20196;-75
2023/12/15 08:38:34;;;;;;;11.70;10.57;;;;;;;5.23;85.74;99720.81;5061965;28;20228;-75
2023/12/15 08:41:03;;;;;;;11.63;10.43;;;;;;;5.34;84.93;99720.78;5061522;28;20209;-75
2023/12/15 08:43:30;;;;;;;12.00;10.80;;;;;;;5.37;85.00;99725.91;5063232;28;20641;-74
2023/12/15 08:45:56;;;;;;;11.88;10.57;;;;;;;5.09;85.77;99737.22;5046013;28;20199;-75
2023/12/15 08:48:24;;;;;;;12.00;10.70;;;;;;;5.31;85.66;99744.34;5061949;28;20232;-75
2023/12/15 08:50:50;;;;;;;11.27;10.20;;;;;;;5.32;85.34;99749.59;5063781;28;20614;-75
2023/12/15 08:53:18;;;;;;;12.20;10.88;;;;;;;5.54;84.35;99737.03;5079097;28;20230;-75
2023/12/15 08:55:44;;;;;;;12.20;10.90;;;;;;;5.52;84.69;99741.72;5081921;28;20732;-75
2023/12/15 08:58:14;;;;;;;11.80;10.70;;;;;;;5.31;85.14;99761.31;5060112;28;20197;-75
2023/12/15 09:00:40;;;;;;;11.50;10.30;;;;;;;5.47;84.77;99758.22;5094147;28;20214;-75
2023/12/15 09:03:08;;;;;;;10.82;9.63;;;;;;;5.52;84.85;99764.06;5080997;28;20203;-75
2023/12/15 09:05:35;;;;;;;11.32;10.23;;;;;;;5.63;84.71;99757.78;5062702;28;20219;-75
2023/12/15 09:08:03;;;;;;;11.77;10.68;;;;;;;5.86;83.89;99759.38;5046205;28;20204;-74
2023/12/15 09:10:33;;;;;;;10.25;9.30;;;;;;;5.63;83.68;99718.34;5063221;28;20196;-75
2023/12/15 09:13:01;;;;;;;10.52;9.43;;;;;;;5.79;83.99;99746.59;5061974;28;20216;-75
2023/12/15 09:15:29;;;;;;;10.25;9.25;;;;;;;5.74;83.88;99749.66;5060797;28;20203;-75
2023/12/15 09:17:56;;;;;;;10.65;9.55;;;;;;;5.71;84.59;99745.41;5076871;28;20193;-75
2023/12/15 09:20:24;;;;;;;10.95;9.80;;;;;;;6.03;83.49;99772.28;5060486;28;20213;-75
2023/12/15 09:22:50;;;;;;;10.50;9.50;;;;;;;5.98;82.76;99771.81;5062163;28;20223;-74
2023/12/15 09:25:17;;;;;;;11.15;10.15;;;;;;;5.91;83.28;99781.34;5061123;28;20231;-75
2023/12/15 09:27:44;;;;;;;9.45;8.55;;;;;;;5.91;83.48;99784.03;5045286;28;20203;-75
2023/12/15 09:30:11;;;;;;;11.93;10.25;;;;;;;6.03;82.76;99787.53;5079322;28;20204;-75
2023/12/15 09:32:39;;;;;;;10.23;9.20;;;;;;;5.75;83.87;99783.63;5080556;28;20222;-75
2023/12/15 09:35:07;;;;;;;9.80;8.85;;;;;;;5.90;83.02;99786.84;5061838;28;21087;-75
2023/12/15 09:37:33;;;;;;;9.98;8.93;;;;;;;5.87;83.39;99773.66;5062235;28;20207;-75
2023/12/15 09:40:00;;;;;;;9.57;8.60;;;;;;;5.84;82.40;99772.09;5044584;28;20196;-75
2023/12/15 09:42:27;;;;;;;10.23;9.23;;;;;;;5.72;82.73;99775.81;5074155;28;20196;-75
2023/12/15 09:44:53;;;;;;;8.98;8.18;;;;;;;5.65;83.12;99779.97;5058939;28;20644;-75
2023/12/15 09:47:21;;;;;;;8.95;8.15;;;;;;;5.62;83.24;99774.88;5042475;28;20207;-74
2023/12/15 09:49:52;;;;;;;8.50;7.70;;;;;;;5.82;82.53;99787.50;5046988;28;20219;-74
2023/12/15 09:52:19;;;;;;;8.90;8.10;;;;;;;6.07;82.01;99781.78;5044785;28;20290;-75
2023/12/15 09:54:46;;;;;;;8.73;7.93;;;;;;;6.14;81.46;99783.94;5062523;28;20234;-75
2023/12/15 09:57:14;;;;;;;8.50;7.75;;;;;;;6.39;80.34;99767.41;5061244;28;20660;-75
2023/12/15 09:59:42;;;;;;;9.07;8.18;;;;;;;6.71;79.83;99765.44;5062646;28;20214;-74
2023/12/15 10:02:09;;;;;;;8.13;7.40;;;;;;;6.88;78.28;99773.84;5053732;28;20661;-75
2023/12/15 10:04:35;;;;;;;8.88;7.95;;;;;;;6.71;77.60;99783.41;5043530;28;20200;-75
2023/12/15 10:07:04;;;;;;;7.13;6.53;;;;;;;6.99;77.53;99798.84;5062064;28;20204;-74
2023/12/15 10:09:30;;;;;;;7.57;6.88;;;;;;;6.96;77.98;99788.34;5065360;28;20674;-74
2023/12/15 10:11:57;;;;;;;7.95;7.10;;;;;;;6.89;77.78;99786.31;5067309;28;20691;-74
2023/12/15 10:14:23;;;;;;;8.07;7.28;;;;;;;6.83;77.89;99792.22;5065374;28;20223;-74
2023/12/15 10:16:50;;;;;;;8.07;7.28;;;;;;;6.65;78.15;99795.56;5050231;28;20204;-74
2023/12/15 10:19:18;;;;;;;8.40;7.60;;;;;;;6.95;78.23;99802.78;5049832;28;20204;-74
2023/12/15 10:21:44;;;;;;;8.13;7.43;;;;;;;6.76;78.63;99807.25;5097510;28;20200;-74
2023/12/15 10:24:23;;;;;;;9.60;8.63;;;;;;;6.76;79.49;99797.31;5100544;28;20203;-73
2023/12/15 10:26:50;;;;;;;8.40;7.70;;;;;;;7.27;78.24;99799.91;5049505;28;20214;-74
2023/12/15 10:29:18;;;;;;;8.80;7.50;;;;;;;7.27;78.18;99804.44;5065816;28;20210;-74
2023/12/15 10:31:45;;;;;;;8.15;7.35;;;;;;;7.35;76.64;99810.00;5058090;28;20245;-74
2023/12/15 10:34:11;;;;;;;8.27;7.47;;;;;;;7.46;75.80;99812.59;5066350;28;20220;-74
2023/12/15 10:36:40;;;;;;;7.70;7.00;;;;;;;7.42;76.51;99811.16;5063730;28;20287;-74
2023/12/15 10:39:07;;;;;;;8.25;6.97;;;;;;;7.34;76.64;99793.00;5064772;28;20252;-74
2023/12/15 10:41:35;;;;;;;7.75;7.05;;;;;;;7.20;77.27;99806.81;5081967;28;20794;-73
2023/12/15 10:44:02;;;;;;;7.88;7.15;;;;;;;7.17;78.01;99807.09;5065914;28;20811;-74
2023/12/15 10:46:29;;;;;;;8.10;7.35;;;;;;;6.96;79.17;99809.00;5056745;28;20560;-74
2023/12/15 10:48:57;;;;;;;8.95;8.10;;;;;;;7.06;78.88;99804.53;5064062;28;20219;-74
2023/12/15 10:51:25;;;;;;;8.80;8.00;;;;;;;6.91;78.65;99806.72;5065875;28;20200;-73
2023/12/15 10:53:53;;;;;;;8.27;7.25;;;;;;;7.03;78.47;99807.50;5073195;28;20230;-74
2023/12/15 10:56:21;;;;;;;7.75;7.05;;;;;;;7.14;78.05;99796.63;5064219;28;20257;-74
2023/12/15 10:58:49;;;;;;;8.02;7.18;;;;;;;7.03;78.09;99799.41;5063877;28;20285;-74
2023/12/15 11:01:16;;;;;;;7.53;6.82;;;;;;;7.02;79.11;99798.56;5062399;28;20204;-75
2023/12/15 11:03:43;;;;;;;8.25;7.13;;;;;;;6.93;77.82;99799.38;5064466;28;20282;-75
2023/12/15 11:06:10;;;;;;;6.55;5.97;;;;;;;6.95;78.06;99810.84;5082737;28;20204;-75
2023/12/15 11:08:37;;;;;;;6.07;5.57;;;;;;;6.86;78.25;99818.88;5064247;28;20226;-75
2023/12/15 11:11:05;;;;;;;6.60;5.80;;;;;;;6.95;77.55;99813.53;5049073;28;20193;-75
2023/12/15 11:13:52;;;;;;;5.22;4.78;;;;;;;7.14;76.77;99826.25;5069789;28;20220;-76
2023/12/15 11:16:19;;;;;;;6.53;4.93;;;;;;;7.01;77.07;99817.53;5062186;28;20282;-76
2023/12/15 11:18:46;;;;;;;6.13;5.05;;;;;;;6.94;77.33;99821.75;5051275;28;21990;-76
2023/12/15 11:21:13;;;;;;;5.63;5.13;;;;;;;6.96;77.37;99820.63;5045041;28;20207;-76
2023/12/15 11:23:50;;;;;;;5.45;4.95;;;;;;;6.93;77.20;99838.88;5048280;28;20192;-76
2023/12/15 11:26:21;;;;;;;5.95;4.65;;;;;;;7.10;76.47;99840.97;5063047;28;20211;-74
2023/12/15 11:28:48;;;;;;;5.47;4.65;;;;;;;7.02;76.47;99820.09;5059401;28;20204;-75
2023/12/15 11:31:24;;;;;;;5.57;4.88;;;;;;;6.64;77.32;99825.28;5063645;28;20208;-76